Terminal Aerodrome Forecast
Issued by NWS

Home | Current Version | Previous Version | Text Only | Print | Product List | Glossary On
Versions: 1 2 3 4 5 6 7 8 9 10 11 12 13 14 15 16 17
000
FTUS43 KGRR 190500
TAFBTL
TAF
KBTL 190540Z 1906/2006 06005KT P6SM FEW035
     FM191000 12003KT 4SM BR SCT007
     FM191400 15007KT P6SM SKC
     FM191800 17010G18KT P6SM SCT035
     FM200000 18009KT P6SM SCT200=

USA.gov is the U.S. government's official web portal to all federal, state and local government web resources and services.